createdAt,value
2023-01-21T00:01:12.545Z,101121.34
2023-01-21T00:03:39.935Z,101118.19
2023-01-21T00:06:08.096Z,101117.44
2023-01-21T00:08:35.575Z,101108.41
2023-01-21T00:11:14.439Z,101114.41
2023-01-21T00:13:43.159Z,101114.75
2023-01-21T00:16:12.045Z,101122.09
2023-01-21T00:18:39.346Z,101123.22
2023-01-21T00:21:06.968Z,101105.69
2023-01-21T00:23:34.251Z,101106.53
2023-01-21T00:26:04.834Z,101108.34
2023-01-21T00:28:34.279Z,101109.25
2023-01-21T00:31:05.284Z,101103.59
2023-01-21T00:33:33.560Z,101111.13
2023-01-21T00:36:06.193Z,101103.38
2023-01-21T00:38:34.624Z,101114.34
2023-01-21T00:41:04.752Z,101101.72
2023-01-21T00:43:32.667Z,101115.75
2023-01-21T00:46:00.572Z,101103.13
2023-01-21T00:48:28.725Z,101106.47
2023-01-21T00:50:59.139Z,101115.88
2023-01-21T00:53:32.483Z,101103.59
2023-01-21T00:56:07.629Z,101100.06
2023-01-21T00:58:35.460Z,101116.72
2023-01-21T01:01:09.011Z,101113.69
2023-01-21T01:03:37.726Z,101104.63
2023-01-21T01:06:12.091Z,101119.13
2023-01-21T01:08:39.512Z,101118.28
2023-01-21T01:11:07.389Z,101103.22
2023-01-21T01:13:36.021Z,101105.28
2023-01-21T01:16:04.277Z,101096.84
2023-01-21T01:18:33.961Z,101102.75
2023-01-21T01:21:02.431Z,101111.41
2023-01-21T01:23:30.034Z,101105.63
2023-01-21T01:26:03.020Z,101098.78
2023-01-21T01:28:31.188Z,101097.88
2023-01-21T01:30:59.340Z,101104.66
2023-01-21T01:33:27.682Z,101093.06
2023-01-21T01:35:55.399Z,101113.53
2023-01-21T01:38:23.156Z,101107.25
2023-01-21T01:40:53.318Z,101106.88
2023-01-21T01:43:49.373Z,101101.59
2023-01-21T01:46:17.109Z,101112.81
2023-01-21T01:48:49.605Z,101117.63
2023-01-21T01:51:22.901Z,101112.59
2023-01-21T01:53:51.903Z,101127.53
2023-01-21T01:56:19.807Z,101122.47
2023-01-21T01:58:48.481Z,101108.69
2023-01-21T02:01:16.147Z,101107.50
2023-01-21T02:03:50.862Z,101116.34
2023-01-21T02:06:19.333Z,101100.28
2023-01-21T02:08:47.768Z,101106.97
2023-01-21T02:11:18.069Z,101099.03
2023-01-21T02:13:58.060Z,101108.50
2023-01-21T02:16:53.136Z,101111.03
2023-01-21T02:19:35.560Z,101114.13
2023-01-21T02:22:16.372Z,101115.84
2023-01-21T02:24:49.638Z,101122.75
2023-01-21T02:27:41.975Z,101135.47
2023-01-21T02:30:27.335Z,101149.72
2023-01-21T02:33:39.117Z,101158.81
2023-01-21T02:36:15.119Z,101149.00
2023-01-21T02:39:20.125Z,101151.00
2023-01-21T02:42:00.486Z,101145.56
2023-01-21T02:44:37.647Z,101158.53
2023-01-21T02:47:22.866Z,101139.31
2023-01-21T02:50:01.005Z,101152.31
2023-01-21T02:52:28.409Z,101154.97
2023-01-21T02:54:58.175Z,101147.75
2023-01-21T02:57:43.208Z,101175.72
2023-01-21T03:00:24.985Z,101164.38
2023-01-21T03:03:04.354Z,101169.69
2023-01-21T03:06:00.907Z,101171.25
2023-01-21T03:08:40.936Z,101171.72
2023-01-21T03:11:08.473Z,101153.56
2023-01-21T03:14:02.610Z,101165.50
2023-01-21T03:16:54.951Z,101157.63
2023-01-21T03:19:42.420Z,101162.94
2023-01-21T03:22:18.938Z,101177.81
2023-01-21T03:24:51.182Z,101178.63
2023-01-21T03:27:22.714Z,101188.66
2023-01-21T03:29:56.909Z,101168.47
2023-01-21T03:32:26.703Z,101166.75
2023-01-21T03:34:56.064Z,101176.84
2023-01-21T03:37:46.565Z,101177.41
2023-01-21T03:40:36.255Z,101181.75
2023-01-21T03:43:04.427Z,101196.72
2023-01-21T03:45:45.632Z,101199.25
2023-01-21T03:48:31.593Z,101196.53
2023-01-21T03:51:15.884Z,101169.81
2023-01-21T03:53:43.993Z,101203.22
2023-01-21T03:56:11.386Z,101187.91
2023-01-21T03:58:38.916Z,101191.94
2023-01-21T04:01:06.241Z,101198.84
2023-01-21T04:03:33.838Z,101184.81
2023-01-21T04:06:01.052Z,101187.59
2023-01-21T04:08:28.630Z,101215.28
2023-01-21T04:10:55.846Z,101211.84
2023-01-21T04:13:23.373Z,101214.44
2023-01-21T04:15:50.793Z,101200.84
2023-01-21T04:18:18.598Z,101215.69
2023-01-21T04:20:46.799Z,101209.31
2023-01-21T04:23:14.456Z,101212.78
2023-01-21T04:25:41.732Z,101193.16
2023-01-21T04:28:09.262Z,101208.41
2023-01-21T04:30:36.598Z,101211.22
2023-01-21T04:33:04.250Z,101222.66
2023-01-21T04:35:31.529Z,101224.50
2023-01-21T04:37:59.035Z,101212.38
2023-01-21T04:40:26.290Z,101227.09
2023-01-21T04:42:53.931Z,101243.00
2023-01-21T04:45:21.661Z,101221.66
2023-01-21T04:47:49.276Z,101232.94
2023-01-21T04:50:17.064Z,101200.72
2023-01-21T04:52:44.955Z,101222.44
2023-01-21T04:55:12.328Z,101225.63
2023-01-21T04:57:39.973Z,101225.22
2023-01-21T05:00:08.670Z,101215.69
2023-01-21T05:02:36.330Z,101217.16
2023-01-21T05:05:04.035Z,101199.66
2023-01-21T05:07:31.572Z,101214.38
2023-01-21T05:09:58.887Z,101235.31
2023-01-21T05:12:26.702Z,101219.28
2023-01-21T05:14:54.848Z,101211.56
2023-01-21T05:17:22.412Z,101214.72
2023-01-21T05:19:52.888Z,101240.41
2023-01-21T05:22:20.571Z,101215.81
2023-01-21T05:24:48.379Z,101190.41
2023-01-21T05:27:16.131Z,101210.38
2023-01-21T05:29:43.427Z,101204.41
2023-01-21T05:32:11.042Z,101221.00
2023-01-21T05:34:38.271Z,101203.50
2023-01-21T05:37:05.952Z,101194.75
2023-01-21T05:39:33.226Z,101198.06
2023-01-21T05:42:00.827Z,101204.00
2023-01-21T05:44:28.238Z,101210.59
2023-01-21T05:46:55.788Z,101217.25
2023-01-21T05:49:23.014Z,101207.59
2023-01-21T05:51:50.634Z,101214.78
2023-01-21T05:54:17.898Z,101224.38
2023-01-21T05:56:45.419Z,101233.06
2023-01-21T05:59:12.782Z,101221.53
2023-01-21T06:01:40.349Z,101198.25
2023-01-21T06:04:07.594Z,101204.28
2023-01-21T06:06:35.237Z,101192.88
2023-01-21T06:09:02.509Z,101191.03
2023-01-21T06:11:30.072Z,101205.94
2023-01-21T06:13:57.331Z,101178.56
2023-01-21T06:16:24.854Z,101227.75
2023-01-21T06:18:52.139Z,101208.66
2023-01-21T06:21:19.691Z,101228.69
2023-01-21T06:23:46.900Z,101219.00
2023-01-21T06:26:14.571Z,101220.00
2023-01-21T06:28:41.827Z,101173.00
2023-01-21T06:31:09.410Z,101219.66
2023-01-21T06:33:36.742Z,101210.13
2023-01-21T06:36:04.529Z,101209.97
2023-01-21T06:38:35.978Z,101232.22
2023-01-21T06:41:04.550Z,101208.53
2023-01-21T06:43:31.839Z,101220.13
2023-01-21T06:45:59.450Z,101202.47
2023-01-21T06:48:26.713Z,101226.97
2023-01-21T06:50:54.315Z,101220.94
2023-01-21T06:53:21.677Z,101222.72
2023-01-21T06:55:49.233Z,101241.97
2023-01-21T06:58:16.529Z,101224.03
2023-01-21T07:00:44.592Z,101251.91
2023-01-21T07:03:11.864Z,101241.22
2023-01-21T07:05:39.457Z,101234.19
2023-01-21T07:08:06.839Z,101224.94
2023-01-21T07:10:34.393Z,101228.66
2023-01-21T07:13:01.684Z,101237.03
2023-01-21T07:15:31.056Z,101244.06
2023-01-21T07:17:58.336Z,101263.53
2023-01-21T07:20:26.117Z,101244.91
2023-01-21T07:22:53.720Z,101258.38
2023-01-21T07:25:21.261Z,101276.91
2023-01-21T07:27:48.667Z,101245.88
2023-01-21T07:30:19.248Z,101242.31
2023-01-21T07:32:47.549Z,101226.16
2023-01-21T07:35:15.779Z,101216.63
2023-01-21T07:37:43.372Z,101234.31
2023-01-21T07:40:11.425Z,101192.53
2023-01-21T07:42:38.732Z,101235.78
2023-01-21T07:45:06.857Z,101233.34
2023-01-21T07:47:34.267Z,101243.72
2023-01-21T07:50:05.103Z,101243.78
2023-01-21T07:52:32.784Z,101235.03
2023-01-21T07:55:01.741Z,101232.25
2023-01-21T07:57:29.252Z,101259.63
2023-01-21T07:59:56.779Z,101238.81
2023-01-21T08:02:24.345Z,101207.06
2023-01-21T08:04:52.096Z,101275.38
2023-01-21T08:07:19.339Z,101242.75
2023-01-21T08:09:46.935Z,101243.53
2023-01-21T08:12:14.156Z,101238.13
2023-01-21T08:14:41.703Z,101239.47
2023-01-21T08:17:09.032Z,101242.28
2023-01-21T08:19:36.541Z,101247.66
2023-01-21T08:22:03.835Z,101264.38
2023-01-21T08:24:31.422Z,101279.50
2023-01-21T08:27:00.329Z,101256.13
2023-01-21T08:29:28.149Z,101244.28
2023-01-21T08:31:55.535Z,101245.13
2023-01-21T08:34:23.313Z,101235.66
2023-01-21T08:36:50.591Z,101253.03
2023-01-21T08:39:18.150Z,101236.25
2023-01-21T08:41:46.057Z,101223.19
2023-01-21T08:44:13.709Z,101239.81
2023-01-21T08:46:40.988Z,101240.03
2023-01-21T08:49:08.690Z,101248.84
2023-01-21T08:51:36.012Z,101240.09
2023-01-21T08:54:08.273Z,101248.38
2023-01-21T08:56:35.913Z,101247.59
2023-01-21T08:59:03.529Z,101250.09
2023-01-21T09:01:30.837Z,101236.09
2023-01-21T09:04:00.544Z,101238.56
2023-01-21T09:06:29.797Z,101228.13
2023-01-21T09:08:58.226Z,101228.75
2023-01-21T09:11:27.070Z,101284.13
2023-01-21T09:13:54.709Z,101239.41
2023-01-21T09:16:23.253Z,101228.25
2023-01-21T09:18:51.108Z,101213.28
2023-01-21T09:21:18.339Z,101229.06
2023-01-21T09:23:46.090Z,101232.13
2023-01-21T09:26:20.253Z,101216.50
2023-01-21T09:29:02.124Z,101208.47
2023-01-21T09:31:30.811Z,101196.78
2023-01-21T09:34:04.325Z,101205.59
2023-01-21T09:36:34.070Z,101215.13
2023-01-21T09:39:02.199Z,101203.72
2023-01-21T09:41:52.658Z,101190.03
2023-01-21T09:44:28.341Z,101200.69
2023-01-21T09:46:55.604Z,101188.13
2023-01-21T09:49:26.051Z,101183.22
2023-01-21T09:52:09.178Z,101182.09
2023-01-21T09:54:38.294Z,101177.78
2023-01-21T09:57:05.436Z,101191.00
2023-01-21T09:59:40.123Z,101181.44
2023-01-21T10:02:21.817Z,101180.63
2023-01-21T10:05:06.770Z,101178.63
2023-01-21T10:07:47.240Z,101168.91
2023-01-21T10:10:28.448Z,101184.03
2023-01-21T10:13:15.558Z,101191.19
2023-01-21T10:16:13.441Z,101158.22
2023-01-21T10:18:45.056Z,101151.53
2023-01-21T10:21:34.617Z,101177.97
2023-01-21T10:24:15.038Z,101180.78
2023-01-21T10:26:47.179Z,101177.78
2023-01-21T10:29:18.030Z,101156.28
2023-01-21T10:32:13.691Z,101169.81
2023-01-21T10:34:52.217Z,101173.13
2023-01-21T10:37:48.340Z,101179.69
2023-01-21T10:40:42.880Z,101172.78
2023-01-21T10:43:10.522Z,101143.94
2023-01-21T10:46:01.203Z,101184.09
2023-01-21T10:48:41.158Z,101152.69
2023-01-21T10:51:17.000Z,101163.75
2023-01-21T10:53:52.127Z,101146.09
2023-01-21T10:56:34.984Z,101151.53
2023-01-21T10:59:10.891Z,101150.97
2023-01-21T11:01:41.748Z,101143.38
2023-01-21T11:04:22.205Z,101156.72
2023-01-21T11:06:59.599Z,101135.78
2023-01-21T11:09:31.734Z,101140.44
2023-01-21T11:12:00.967Z,101173.56
2023-01-21T11:14:28.648Z,101140.38
2023-01-21T11:16:56.532Z,101150.66
2023-01-21T11:19:27.130Z,101130.97
2023-01-21T11:22:22.165Z,101129.50
2023-01-21T11:24:51.834Z,101150.25
2023-01-21T11:27:23.634Z,101120.34
2023-01-21T11:29:51.212Z,101165.00
2023-01-21T11:32:22.891Z,101160.34
2023-01-21T11:34:51.712Z,101137.56
2023-01-21T11:37:21.849Z,101124.84
2023-01-21T11:40:03.772Z,101147.22
2023-01-21T11:42:31.105Z,101154.09
2023-01-21T11:45:05.289Z,101119.75
2023-01-21T11:47:39.772Z,101137.44
2023-01-21T11:50:28.115Z,101117.84
2023-01-21T11:53:11.506Z,101148.78
2023-01-21T11:55:46.847Z,101153.97
2023-01-21T11:58:28.723Z,101134.91
2023-01-21T12:00:57.966Z,101145.22
2023-01-21T12:03:29.574Z,101133.63
2023-01-21T12:05:57.113Z,101143.22
2023-01-21T12:08:27.066Z,101150.41
2023-01-21T12:10:57.901Z,101168.91
2023-01-21T12:13:46.897Z,101143.22
2023-01-21T12:16:14.416Z,101148.59
2023-01-21T12:19:03.056Z,101147.44
2023-01-21T12:21:33.323Z,101143.88
2023-01-21T12:24:06.231Z,101139.84
2023-01-21T12:26:49.342Z,101136.63
2023-01-21T12:29:25.561Z,101141.09
2023-01-21T12:32:11.036Z,101158.28
2023-01-21T12:34:38.499Z,101152.63
2023-01-21T12:37:18.114Z,101155.56
2023-01-21T12:39:49.021Z,101145.88
2023-01-21T12:42:27.435Z,101149.97
2023-01-21T12:45:00.325Z,101162.16
2023-01-21T12:47:34.951Z,101141.22
2023-01-21T12:50:02.160Z,101146.41
2023-01-21T12:53:17.518Z,101144.38
2023-01-21T12:56:09.306Z,101161.00
2023-01-21T12:58:42.964Z,101137.63
2023-01-21T13:01:16.118Z,101145.44
2023-01-21T13:04:04.027Z,101149.84
2023-01-21T13:06:53.203Z,101157.50
2023-01-21T13:09:37.720Z,101148.22
2023-01-21T13:12:20.569Z,101143.56
2023-01-21T13:15:17.190Z,101150.25
2023-01-21T13:17:51.040Z,101144.66
2023-01-21T13:20:21.258Z,101174.50
2023-01-21T13:23:16.222Z,101162.22
2023-01-21T13:25:50.862Z,101172.72
2023-01-21T13:28:32.084Z,101171.72
2023-01-21T13:30:59.767Z,101177.34
2023-01-21T13:33:39.147Z,101198.75
2023-01-21T13:36:36.452Z,101163.66
2023-01-21T13:39:15.981Z,101177.47
2023-01-21T13:42:02.022Z,101212.94
2023-01-21T13:44:41.687Z,101181.34
2023-01-21T13:47:18.470Z,101196.47
2023-01-21T13:50:08.849Z,101203.94
2023-01-21T13:53:04.400Z,101187.13
2023-01-21T13:55:38.512Z,101201.75
2023-01-21T13:58:13.311Z,101199.16
2023-01-21T14:01:05.936Z,101194.06
2023-01-21T14:03:45.124Z,101200.88
2023-01-21T14:06:55.710Z,101238.69
2023-01-21T14:09:28.816Z,101222.19
2023-01-21T14:12:05.920Z,101224.34
2023-01-21T14:14:52.382Z,101216.28
2023-01-21T14:17:42.621Z,101234.31
2023-01-21T14:20:16.137Z,101217.63
2023-01-21T14:23:12.723Z,101219.44
2023-01-21T14:25:55.394Z,101233.81
2023-01-21T14:28:33.260Z,101227.34
2023-01-21T14:31:13.876Z,101223.25
2023-01-21T14:33:46.859Z,101239.94
2023-01-21T14:36:35.490Z,101223.41
2023-01-21T14:39:15.791Z,101296.16
2023-01-21T14:42:05.140Z,101232.91
2023-01-21T14:44:38.555Z,101251.38
2023-01-21T14:47:16.209Z,101239.78
2023-01-21T14:49:48.925Z,101236.59
2023-01-21T14:52:27.166Z,101255.63
2023-01-21T14:54:54.667Z,101266.56
2023-01-21T14:57:38.685Z,101246.38
2023-01-21T15:00:22.399Z,101277.63
2023-01-21T15:03:06.200Z,101275.16
2023-01-21T15:05:38.355Z,101283.09
2023-01-21T15:08:21.621Z,101284.03
2023-01-21T15:10:58.045Z,101268.28
2023-01-21T15:13:39.141Z,101265.03
2023-01-21T15:16:26.810Z,101269.78
2023-01-21T15:19:13.042Z,101269.06
2023-01-21T15:21:46.291Z,101281.22
2023-01-21T15:24:30.523Z,101291.75
2023-01-21T15:27:20.600Z,101293.31
2023-01-21T15:29:54.636Z,101285.63
2023-01-21T15:32:34.899Z,101347.13
2023-01-21T15:35:24.416Z,101309.81
2023-01-21T15:37:59.417Z,101285.28
2023-01-21T15:40:36.167Z,101302.63
2023-01-21T15:43:12.559Z,101294.97
2023-01-21T15:46:01.673Z,101307.84
2023-01-21T15:48:42.235Z,101319.16
2023-01-21T15:51:16.288Z,101316.72
2023-01-21T15:54:05.355Z,101312.97
2023-01-21T15:57:01.333Z,101302.56
2023-01-21T15:59:56.480Z,101317.31
2023-01-21T16:02:36.045Z,101325.00
2023-01-21T16:05:12.315Z,101324.09
2023-01-21T16:08:07.925Z,101336.16
2023-01-21T16:10:44.123Z,101334.19
2023-01-21T16:13:40.480Z,101335.84
2023-01-21T16:16:46.666Z,101326.84
2023-01-21T16:19:21.733Z,101323.16
2023-01-21T16:21:55.029Z,101335.41
2023-01-21T16:24:27.179Z,101343.81
2023-01-21T16:26:54.554Z,101336.78
2023-01-21T16:29:22.097Z,101343.41
2023-01-21T16:31:52.211Z,101334.66
2023-01-21T16:34:41.894Z,101346.75
2023-01-21T16:37:18.499Z,101347.56
2023-01-21T16:39:47.005Z,101369.19
2023-01-21T16:42:29.246Z,101348.66
2023-01-21T16:44:58.213Z,101370.97
2023-01-21T16:47:30.379Z,101354.16
2023-01-21T16:49:58.073Z,101359.69
2023-01-21T16:52:26.638Z,101360.44
2023-01-21T16:54:55.442Z,101362.34
2023-01-21T16:57:31.819Z,101375.69
2023-01-21T17:00:02.631Z,101359.09
2023-01-21T17:02:34.419Z,101348.47
2023-01-21T17:05:05.206Z,101378.38
2023-01-21T17:07:36.631Z,101366.88
2023-01-21T17:10:21.652Z,101392.91
2023-01-21T17:12:54.033Z,101391.88
2023-01-21T17:15:39.281Z,101383.56
2023-01-21T17:18:17.870Z,101384.09
2023-01-21T17:20:59.562Z,101375.25
2023-01-21T17:23:55.652Z,101400.31
2023-01-21T17:26:31.613Z,101392.25
2023-01-21T17:29:16.744Z,101398.59
2023-01-21T17:31:45.155Z,101398.50
2023-01-21T17:34:15.547Z,101407.25
2023-01-21T17:36:50.477Z,101403.03
2023-01-21T17:39:49.300Z,101401.94
2023-01-21T17:42:19.669Z,101399.44
2023-01-21T17:44:50.461Z,101400.06
2023-01-21T17:47:26.671Z,101406.91
2023-01-21T17:50:24.021Z,101415.59
2023-01-21T17:53:01.608Z,101431.66
2023-01-21T17:55:33.289Z,101397.97
2023-01-21T17:58:04.701Z,101424.06
2023-01-21T18:00:43.888Z,101409.16
2023-01-21T18:03:12.354Z,101414.28
2023-01-21T18:05:41.795Z,101414.19
2023-01-21T18:08:15.111Z,101430.06
2023-01-21T18:10:43.665Z,101414.97
2023-01-21T18:13:16.173Z,101436.03
2023-01-21T18:15:44.387Z,101429.88
2023-01-21T18:18:25.706Z,101428.47
2023-01-21T18:20:53.228Z,101421.69
2023-01-21T18:23:21.018Z,101442.78
2023-01-21T18:25:52.441Z,101447.38
2023-01-21T18:28:25.860Z,101436.06
2023-01-21T18:30:57.800Z,101435.97
2023-01-21T18:33:25.965Z,101442.97
2023-01-21T18:35:53.822Z,101446.44
2023-01-21T18:38:27.641Z,101434.22
2023-01-21T18:40:56.030Z,101446.56
2023-01-21T18:43:24.986Z,101452.78
2023-01-21T18:45:54.297Z,101454.38
2023-01-21T18:48:28.294Z,101455.22
2023-01-21T18:50:55.958Z,101434.06
2023-01-21T18:53:23.525Z,101465.69
2023-01-21T18:55:54.018Z,101456.38
2023-01-21T18:58:21.914Z,101459.94
2023-01-21T19:00:49.526Z,101457.69
2023-01-21T19:03:17.527Z,101470.66
2023-01-21T19:05:47.748Z,101476.81
2023-01-21T19:08:22.764Z,101475.84
2023-01-21T19:10:50.656Z,101484.66
2023-01-21T19:13:18.174Z,101470.66
2023-01-21T19:15:47.144Z,101476.53
2023-01-21T19:18:16.552Z,101479.94
2023-01-21T19:20:44.094Z,101482.03
2023-01-21T19:23:17.366Z,101482.28
2023-01-21T19:25:56.129Z,101470.88
2023-01-21T19:28:25.390Z,101484.03
2023-01-21T19:30:55.594Z,101482.06
2023-01-21T19:33:23.932Z,101483.22
2023-01-21T19:35:59.453Z,101497.38
2023-01-21T19:38:27.472Z,101509.75
2023-01-21T19:40:55.808Z,101497.03
2023-01-21T19:43:23.581Z,101503.31
2023-01-21T19:45:52.247Z,101511.41
2023-01-21T19:48:21.778Z,101499.97
2023-01-21T19:50:49.530Z,101512.13
2023-01-21T19:53:21.207Z,101507.53
2023-01-21T19:55:49.814Z,101507.97
2023-01-21T19:58:20.078Z,101493.06
2023-01-21T20:00:50.271Z,101512.22
2023-01-21T20:03:19.224Z,101509.91
2023-01-21T20:05:49.875Z,101507.91
2023-01-21T20:08:26.430Z,101518.66
2023-01-21T20:10:53.806Z,101521.97
2023-01-21T20:13:21.704Z,101544.53
2023-01-21T20:15:51.513Z,101529.97
2023-01-21T20:18:25.583Z,101537.97
2023-01-21T20:20:54.037Z,101532.84
2023-01-21T20:23:23.189Z,101517.38
2023-01-21T20:25:55.179Z,101535.66
2023-01-21T20:28:22.733Z,101561.47
2023-01-21T20:30:53.156Z,101543.53
2023-01-21T20:33:23.211Z,101540.94
2023-01-21T20:35:55.616Z,101542.69
2023-01-21T20:38:30.229Z,101533.28
2023-01-21T20:40:58.996Z,101556.94
2023-01-21T20:43:27.814Z,101543.06
2023-01-21T20:45:59.600Z,101550.69
2023-01-21T20:48:35.022Z,101566.34
2023-01-21T20:51:03.304Z,101563.88
2023-01-21T20:53:30.937Z,101568.19
2023-01-21T20:56:00.852Z,101561.13
2023-01-21T20:58:28.756Z,101563.06
2023-01-21T21:00:56.093Z,101551.53
2023-01-21T21:03:23.886Z,101564.31
2023-01-21T21:05:51.150Z,101566.69
2023-01-21T21:08:21.617Z,101551.34
2023-01-21T21:10:50.951Z,101564.59
2023-01-21T21:13:18.599Z,101551.41
2023-01-21T21:15:46.708Z,101564.78
2023-01-21T21:18:14.885Z,101579.97
2023-01-21T21:20:42.151Z,101581.72
2023-01-21T21:23:16.021Z,101578.31
2023-01-21T21:25:47.896Z,101587.09
2023-01-21T21:28:17.664Z,101573.00
2023-01-21T21:30:45.286Z,101560.47
2023-01-21T21:33:19.627Z,101583.44
2023-01-21T21:35:47.412Z,101577.09
2023-01-21T21:38:17.948Z,101564.41
2023-01-21T21:40:47.391Z,101565.16
2023-01-21T21:43:35.904Z,101568.84
2023-01-21T21:46:30.601Z,101573.97
2023-01-21T21:48:58.161Z,101581.09
2023-01-21T21:51:25.626Z,101581.16
2023-01-21T21:53:53.192Z,101572.44
2023-01-21T21:56:22.738Z,101566.47
2023-01-21T21:58:51.369Z,101574.31
2023-01-21T22:01:20.642Z,101589.94
2023-01-21T22:03:49.031Z,101565.38
2023-01-21T22:06:18.772Z,101576.88
2023-01-21T22:08:46.936Z,101581.41
2023-01-21T22:11:19.595Z,101588.28
2023-01-21T22:13:50.226Z,101586.44
2023-01-21T22:16:24.105Z,101589.09
2023-01-21T22:18:52.629Z,101586.63
2023-01-21T22:21:25.779Z,101614.91
2023-01-21T22:23:54.678Z,101599.84
2023-01-21T22:26:24.017Z,101591.09
2023-01-21T22:28:51.948Z,101608.56
2023-01-21T22:31:22.268Z,101603.00
2023-01-21T22:33:50.212Z,101610.91
2023-01-21T22:36:19.969Z,101601.84
2023-01-21T22:38:48.024Z,101600.66
2023-01-21T22:41:17.702Z,101623.66
2023-01-21T22:43:48.160Z,101616.81
2023-01-21T22:46:24.300Z,101616.56
2023-01-21T22:48:54.047Z,101623.13
2023-01-21T22:51:23.117Z,101605.47
2023-01-21T22:53:51.577Z,101603.72
2023-01-21T22:56:25.377Z,101621.00
2023-01-21T22:58:59.438Z,101622.22
2023-01-21T23:01:31.345Z,101617.53
2023-01-21T23:03:59.863Z,101623.97
2023-01-21T23:06:27.402Z,101618.66
2023-01-21T23:08:55.728Z,101626.38
2023-01-21T23:11:23.229Z,101617.72
2023-01-21T23:13:53.278Z,101610.81
2023-01-21T23:16:21.233Z,101618.06
2023-01-21T23:18:49.402Z,101621.34
2023-01-21T23:21:21.383Z,101616.91
2023-01-21T23:23:49.376Z,101624.91
2023-01-21T23:26:19.291Z,101622.59
2023-01-21T23:28:47.456Z,101629.09
2023-01-21T23:31:17.430Z,101620.59
2023-01-21T23:33:49.444Z,101636.53
2023-01-21T23:36:17.029Z,101623.31
2023-01-21T23:38:44.998Z,101615.59
2023-01-21T23:41:14.472Z,101619.66
2023-01-21T23:43:41.983Z,101635.53
2023-01-21T23:46:12.957Z,101631.94
2023-01-21T23:48:40.531Z,101615.47
2023-01-21T23:51:11.895Z,101635.34
2023-01-21T23:53:39.582Z,101625.84
2023-01-21T23:56:10.904Z,101636.56
2023-01-21T23:58:38.475Z,101622.34
